createdAt,value
2019-01-22T00:00:51.363Z,25.77
2019-01-22T00:03:21.138Z,25.67
2019-01-22T00:05:50.903Z,26.10
2019-01-22T00:08:20.961Z,27.23
2019-01-22T00:10:51.295Z,26.57
2019-01-22T00:13:21.053Z,26.30
2019-01-22T00:15:50.720Z,24.37
2019-01-22T00:18:20.451Z,25.20
2019-01-22T00:20:50.125Z,26.00
2019-01-22T00:23:19.792Z,23.10
2019-01-22T00:25:49.539Z,26.37
2019-01-22T00:28:19.269Z,24.10
2019-01-22T00:30:48.908Z,24.93
2019-01-22T00:33:18.573Z,25.53
2019-01-22T00:35:48.251Z,26.47
2019-01-22T00:38:17.862Z,25.77
2019-01-22T00:40:47.663Z,27.13
2019-01-22T00:43:17.288Z,24.83
2019-01-22T00:45:46.983Z,25.30
2019-01-22T00:48:16.653Z,25.60
2019-01-22T00:50:46.390Z,24.23
2019-01-22T00:53:16.018Z,27.00
2019-01-22T00:55:45.964Z,24.03
2019-01-22T00:58:15.634Z,24.13
2019-01-22T01:00:45.365Z,27.87
2019-01-22T01:03:15.239Z,24.70
2019-01-22T01:05:44.963Z,24.50
2019-01-22T01:08:14.801Z,25.90
2019-01-22T01:10:44.507Z,23.27
2019-01-22T01:13:14.266Z,22.90
2019-01-22T01:15:44.762Z,22.90
2019-01-22T01:18:14.540Z,24.60
2019-01-22T01:20:44.235Z,25.33
2019-01-22T01:23:16.902Z,25.60
2019-01-22T01:25:45.349Z,23.80
2019-01-22T01:28:14.996Z,23.60
2019-01-22T01:30:44.673Z,23.60
2019-01-22T01:33:14.459Z,23.27
2019-01-22T01:35:44.138Z,24.20
2019-01-22T01:38:14.097Z,26.37
2019-01-22T01:40:43.694Z,25.27
2019-01-22T01:43:13.416Z,26.03
2019-01-22T01:45:43.156Z,23.83
2019-01-22T01:48:12.821Z,23.37
2019-01-22T01:50:42.444Z,23.17
2019-01-22T01:53:12.150Z,25.00
2019-01-22T01:55:42.569Z,27.10
2019-01-22T01:58:12.253Z,23.03
2019-01-22T02:00:41.985Z,25.70
2019-01-22T02:03:11.619Z,24.57
2019-01-22T02:05:41.620Z,25.67
2019-01-22T02:08:11.527Z,24.53
2019-01-22T02:10:41.296Z,23.80
2019-01-22T02:13:11.466Z,26.27
2019-01-22T02:15:56.197Z,23.20
2019-01-22T02:18:28.888Z,23.30
2019-01-22T02:21:30.874Z,22.53
2019-01-22T02:24:22.608Z,23.57
2019-01-22T02:27:04.158Z,24.30
2019-01-22T02:29:45.770Z,21.77
2019-01-22T02:32:30.479Z,25.60
2019-01-22T02:35:15.088Z,24.10
2019-01-22T02:37:56.778Z,23.20
2019-01-22T02:40:35.377Z,24.90
2019-01-22T02:43:27.644Z,25.60
2019-01-22T02:46:03.010Z,24.50
2019-01-22T02:48:41.414Z,25.70
2019-01-22T02:51:22.706Z,22.10
2019-01-22T02:53:55.757Z,22.57
2019-01-22T02:56:34.014Z,23.03
2019-01-22T02:59:15.786Z,22.90
2019-01-22T03:02:03.489Z,26.07
2019-01-22T03:04:36.194Z,22.53
2019-01-22T03:07:29.618Z,23.47
2019-01-22T03:10:20.532Z,23.60
2019-01-22T03:13:11.398Z,23.17
2019-01-22T03:15:55.977Z,24.67
2019-01-22T03:18:45.725Z,21.20
2019-01-22T03:21:24.511Z,21.13
2019-01-22T03:23:57.193Z,21.53
2019-01-22T03:26:44.981Z,22.50
2019-01-22T03:29:23.404Z,21.17
2019-01-22T03:32:11.136Z,22.77
2019-01-22T03:35:09.631Z,25.03
2019-01-22T03:37:51.409Z,23.20
2019-01-22T03:40:27.339Z,20.97
2019-01-22T03:43:12.201Z,20.83
2019-01-22T03:45:44.888Z,24.13
2019-01-22T03:48:39.551Z,22.23
2019-01-22T03:51:21.331Z,22.50
2019-01-22T03:53:57.234Z,22.30
2019-01-22T03:56:46.773Z,22.90
2019-01-22T03:59:16.544Z,22.87
2019-01-22T04:01:46.695Z,24.03
2019-01-22T04:04:16.619Z,21.70
2019-01-22T04:06:47.019Z,22.13
2019-01-22T04:09:19.843Z,23.20
2019-01-22T04:11:49.620Z,24.50
2019-01-22T04:14:19.335Z,24.07
2019-01-22T04:16:49.007Z,20.57
2019-01-22T04:19:18.618Z,22.43
2019-01-22T04:21:48.365Z,20.10
2019-01-22T04:24:42.379Z,22.90
2019-01-22T04:27:24.854Z,21.90
2019-01-22T04:30:21.500Z,20.67
2019-01-22T04:33:09.547Z,21.60
2019-01-22T04:35:53.490Z,23.40
2019-01-22T04:38:38.301Z,21.63
2019-01-22T04:41:20.080Z,21.87
2019-01-22T04:44:01.905Z,20.67
2019-01-22T04:46:43.382Z,22.23
2019-01-22T04:49:28.267Z,21.70
2019-01-22T04:52:10.077Z,22.77
2019-01-22T04:54:57.867Z,21.90
2019-01-22T04:57:36.380Z,21.70
2019-01-22T05:00:29.627Z,19.87
2019-01-22T05:03:14.378Z,23.40
2019-01-22T05:05:50.200Z,21.97
2019-01-22T05:08:44.244Z,21.00
2019-01-22T05:11:25.797Z,23.13
2019-01-22T05:14:01.311Z,20.57
2019-01-22T05:17:07.202Z,21.10
2019-01-22T05:19:42.786Z,20.00
2019-01-22T05:22:32.830Z,20.90
2019-01-22T05:25:11.648Z,22.33
2019-01-22T05:28:19.059Z,23.97
2019-01-22T05:31:06.675Z,20.70
2019-01-22T05:33:42.400Z,23.43
2019-01-22T05:36:30.024Z,21.93
2019-01-22T05:39:14.002Z,24.10
2019-01-22T05:42:03.350Z,22.30
2019-01-22T05:44:47.869Z,22.53
2019-01-22T05:47:20.565Z,23.60
2019-01-22T05:50:12.833Z,21.30
2019-01-22T05:52:57.712Z,21.23
2019-01-22T05:55:38.961Z,22.00
2019-01-22T05:58:40.327Z,22.43
2019-01-22T06:01:13.400Z,21.10
2019-01-22T06:04:05.843Z,22.70
2019-01-22T06:07:00.909Z,22.03
2019-01-22T06:09:44.899Z,21.30
2019-01-22T06:12:20.282Z,22.80
2019-01-22T06:14:53.335Z,23.53
2019-01-22T06:17:40.993Z,20.67
2019-01-22T06:20:18.987Z,23.10
2019-01-22T06:23:14.551Z,21.20
2019-01-22T06:25:55.911Z,19.63
2019-01-22T06:28:47.922Z,21.17
2019-01-22T06:32:00.696Z,22.90
2019-01-22T06:34:56.351Z,20.70
2019-01-22T06:37:31.864Z,22.27
2019-01-22T06:40:16.525Z,22.10
2019-01-22T06:42:58.187Z,24.30
2019-01-22T06:45:49.114Z,21.90
2019-01-22T06:48:24.442Z,21.70
2019-01-22T06:51:24.742Z,20.57
2019-01-22T06:54:25.240Z,22.87
2019-01-22T06:57:16.032Z,21.13
2019-01-22T07:00:09.602Z,22.83
2019-01-22T07:02:45.302Z,23.90
2019-01-22T07:05:33.121Z,22.30
2019-01-22T07:08:27.956Z,23.10
2019-01-22T07:11:19.015Z,20.17
2019-01-22T07:14:09.628Z,11.93
2019-01-22T07:16:45.292Z,17.47
2019-01-22T07:19:33.123Z,17.67
2019-01-22T07:22:22.224Z,17.13
2019-01-22T07:25:13.011Z,19.23
2019-01-22T07:27:48.590Z,19.30
2019-01-22T07:30:47.136Z,17.93
2019-01-22T07:33:25.747Z,18.63
2019-01-22T07:35:58.454Z,21.63
2019-01-22T07:38:33.866Z,20.33
2019-01-22T07:41:15.822Z,21.00
2019-01-22T07:43:51.197Z,22.17
2019-01-22T07:46:53.795Z,19.37
2019-01-22T07:49:32.043Z,20.20
2019-01-22T07:52:13.734Z,22.13
2019-01-22T07:55:04.070Z,18.83
2019-01-22T07:58:01.198Z,21.53
2019-01-22T08:00:36.635Z,21.10
2019-01-22T08:03:30.894Z,21.67
2019-01-22T08:06:03.594Z,21.20
2019-01-22T08:08:45.701Z,21.13
2019-01-22T08:11:21.310Z,19.93
2019-01-22T08:13:59.952Z,22.33
2019-01-22T08:17:06.290Z,19.60
2019-01-22T08:19:47.924Z,21.73
2019-01-22T08:22:40.061Z,23.73
2019-01-22T08:25:21.730Z,23.23
2019-01-22T08:28:00.369Z,21.07
2019-01-22T08:30:38.802Z,22.57
2019-01-22T08:33:17.417Z,21.23
2019-01-22T08:35:50.150Z,24.40
2019-01-22T08:38:35.153Z,24.53
2019-01-22T08:41:16.678Z,23.10
2019-01-22T08:44:04.541Z,19.60
2019-01-22T08:46:40.442Z,24.27
2019-01-22T08:49:25.341Z,21.70
2019-01-22T08:52:19.484Z,22.70
2019-01-22T08:55:07.978Z,22.47
2019-01-22T08:57:56.295Z,22.60
2019-01-22T09:00:31.729Z,21.90
2019-01-22T09:03:16.244Z,23.20
2019-01-22T09:05:51.518Z,22.30
2019-01-22T09:08:33.529Z,22.10
2019-01-22T09:11:15.070Z,25.23
2019-01-22T09:14:15.241Z,23.33
2019-01-22T09:17:10.837Z,24.10
2019-01-22T09:19:55.291Z,22.90
2019-01-22T09:22:57.371Z,24.10
2019-01-22T09:26:10.723Z,22.67
2019-01-22T09:28:43.434Z,21.23
2019-01-22T09:31:25.274Z,23.53
2019-01-22T09:34:13.317Z,22.93
2019-01-22T09:36:46.037Z,21.23
2019-01-22T09:39:15.978Z,22.97
2019-01-22T09:41:45.912Z,21.93
2019-01-22T09:44:15.688Z,22.93
2019-01-22T09:46:45.382Z,21.60
2019-01-22T09:49:35.460Z,20.53
2019-01-22T09:52:05.312Z,20.50
2019-01-22T09:54:35.121Z,21.40
2019-01-22T09:57:04.965Z,19.37
2019-01-22T09:59:34.987Z,19.00
2019-01-22T10:02:05.048Z,18.77
2019-01-22T10:04:34.703Z,18.37
2019-01-22T10:07:04.837Z,20.20
2019-01-22T10:09:34.588Z,20.30
2019-01-22T10:12:04.511Z,18.87
2019-01-22T10:14:34.359Z,17.13
2019-01-22T10:17:04.387Z,17.40
2019-01-22T10:19:34.214Z,17.83
2019-01-22T10:22:04.398Z,16.50
2019-01-22T10:24:34.205Z,15.40
2019-01-22T10:27:04.166Z,15.37
2019-01-22T10:29:34.269Z,16.10
2019-01-22T10:32:09.376Z,16.97
2019-01-22T10:34:43.749Z,17.70
2019-01-22T10:37:15.839Z,16.50
2019-01-22T10:39:45.951Z,15.87
2019-01-22T10:42:35.037Z,17.73
2019-01-22T10:45:07.456Z,16.90
2019-01-22T10:47:37.143Z,14.53
2019-01-22T10:50:09.730Z,15.47
2019-01-22T10:52:39.505Z,15.93
2019-01-22T10:55:11.890Z,15.13
2019-01-22T10:57:41.987Z,14.20
2019-01-22T11:00:20.605Z,16.33
2019-01-22T11:02:50.346Z,14.73
2019-01-22T11:05:23.505Z,13.50
2019-01-22T11:07:53.253Z,12.90
2019-01-22T11:10:23.039Z,13.60
2019-01-22T11:12:52.794Z,13.53
2019-01-22T11:15:27.850Z,14.07
2019-01-22T11:17:54.294Z,14.67
2019-01-22T11:20:29.509Z,14.20
2019-01-22T11:22:59.605Z,14.50
2019-01-22T11:25:31.886Z,14.53
2019-01-22T11:28:01.693Z,14.30
2019-01-22T11:30:31.448Z,15.37
2019-01-22T11:33:01.348Z,12.87
2019-01-22T11:35:31.301Z,13.20
2019-01-22T11:38:00.955Z,14.50
2019-01-22T11:40:33.383Z,12.43
2019-01-22T11:43:03.207Z,13.30
2019-01-22T11:45:33.126Z,12.30
2019-01-22T11:48:02.941Z,13.37
2019-01-22T11:50:32.771Z,12.60
2019-01-22T11:53:02.477Z,11.80
2019-01-22T11:55:32.283Z,12.20
2019-01-22T11:58:01.996Z,12.67
2019-01-22T12:00:37.910Z,11.80
2019-01-22T12:03:07.641Z,12.13
2019-01-22T12:05:37.241Z,11.67
2019-01-22T12:08:07.027Z,12.67
2019-01-22T12:10:36.814Z,11.73
2019-01-22T12:13:06.591Z,11.77
2019-01-22T12:15:36.647Z,11.33
2019-01-22T12:18:06.857Z,11.07
2019-01-22T12:20:42.005Z,10.20
2019-01-22T12:23:12.089Z,10.67
2019-01-22T12:25:41.800Z,10.53
2019-01-22T12:28:11.919Z,10.73
2019-01-22T12:30:41.676Z,10.20
2019-01-22T12:33:11.445Z,11.87
2019-01-22T12:35:41.361Z,11.40
2019-01-22T12:38:11.093Z,10.00
2019-01-22T12:40:40.841Z,9.80
2019-01-22T12:43:10.586Z,10.00
2019-01-22T12:45:40.391Z,10.03
2019-01-22T12:48:10.149Z,9.60
2019-01-22T12:50:39.909Z,9.10
2019-01-22T12:53:09.768Z,8.97
2019-01-22T12:55:39.486Z,9.63
2019-01-22T12:58:09.673Z,9.67
2019-01-22T13:00:39.442Z,9.57
2019-01-22T13:03:09.220Z,10.33
2019-01-22T13:05:54.426Z,10.10
2019-01-22T13:08:24.139Z,10.50
2019-01-22T13:10:53.764Z,8.90
2019-01-22T13:13:23.493Z,9.20
2019-01-22T13:15:53.174Z,8.30
2019-01-22T13:18:23.518Z,9.50
2019-01-22T13:20:53.337Z,9.67
2019-01-22T13:23:23.129Z,9.13
2019-01-22T13:25:53.160Z,9.00
2019-01-22T13:28:22.815Z,9.70
2019-01-22T13:30:52.515Z,8.47
2019-01-22T13:33:22.219Z,8.83
2019-01-22T13:35:52.179Z,8.60
2019-01-22T13:38:21.900Z,12.83
2019-01-22T13:40:51.670Z,9.00
2019-01-22T13:43:21.643Z,8.60
2019-01-22T13:45:51.352Z,8.43
2019-01-22T13:48:21.418Z,8.83
2019-01-22T13:50:51.109Z,9.50
2019-01-22T13:53:20.850Z,8.60
2019-01-22T13:55:51.014Z,9.60
2019-01-22T13:58:20.700Z,8.80
2019-01-22T14:00:50.443Z,9.40
2019-01-22T14:03:20.546Z,8.20
2019-01-22T14:05:50.345Z,9.47
2019-01-22T14:08:20.033Z,9.00
2019-01-22T14:10:49.706Z,9.63
2019-01-22T14:13:19.333Z,9.50
2019-01-22T14:15:49.078Z,9.60
2019-01-22T14:18:18.878Z,9.33
2019-01-22T14:20:48.549Z,8.93
2019-01-22T14:23:18.254Z,8.33
2019-01-22T14:25:47.966Z,9.07
2019-01-22T14:28:17.612Z,9.50
2019-01-22T14:30:47.371Z,9.20
2019-01-22T14:33:17.150Z,9.10
2019-01-22T14:35:46.866Z,9.20
2019-01-22T14:38:16.575Z,10.63
2019-01-22T14:40:46.329Z,11.83
2019-01-22T14:43:16.054Z,10.97
2019-01-22T14:45:45.732Z,9.63
2019-01-22T14:48:15.382Z,10.20
2019-01-22T14:50:45.449Z,10.50
2019-01-22T14:53:15.269Z,11.03
2019-01-22T14:55:44.974Z,9.53
2019-01-22T14:58:14.728Z,9.43
2019-01-22T15:00:44.802Z,9.80
2019-01-22T15:03:14.551Z,11.33
2019-01-22T15:05:44.527Z,10.33
2019-01-22T15:08:14.247Z,9.77
2019-01-22T15:10:44.346Z,9.07
2019-01-22T15:13:14.467Z,11.07
2019-01-22T15:15:44.327Z,9.87
2019-01-22T15:18:14.303Z,10.33
2019-01-22T15:20:43.991Z,11.60
2019-01-22T15:23:13.632Z,9.83
2019-01-22T15:25:43.376Z,12.53
2019-01-22T15:28:13.150Z,11.87
2019-01-22T15:30:42.882Z,10.70
2019-01-22T15:33:12.586Z,10.90
2019-01-22T15:35:42.343Z,12.90
2019-01-22T15:38:12.054Z,13.20
2019-01-22T15:40:41.842Z,13.17
2019-01-22T15:43:12.017Z,11.90
2019-01-22T15:45:41.695Z,11.00
2019-01-22T15:48:11.420Z,14.10
2019-01-22T15:50:41.428Z,10.70
2019-01-22T15:53:11.158Z,11.63
2019-01-22T15:55:47.779Z,11.00
2019-01-22T15:58:12.201Z,13.80
2019-01-22T16:00:42.148Z,11.53
2019-01-22T16:03:11.906Z,16.60
2019-01-22T16:05:41.605Z,12.27
2019-01-22T16:08:11.663Z,12.23
2019-01-22T16:10:41.569Z,12.50
2019-01-22T16:13:11.355Z,13.27
2019-01-22T16:15:41.417Z,12.73
2019-01-22T16:18:11.127Z,13.87
2019-01-22T16:20:40.838Z,14.80
2019-01-22T16:23:10.515Z,13.97
2019-01-22T16:25:40.319Z,14.03
2019-01-22T16:28:09.970Z,14.10
2019-01-22T16:30:39.661Z,14.50
2019-01-22T16:33:09.384Z,11.70
2019-01-22T16:35:39.099Z,14.30
2019-01-22T16:38:08.808Z,12.63
2019-01-22T16:40:38.512Z,12.67
2019-01-22T16:43:08.360Z,14.80
2019-01-22T16:45:38.092Z,16.40
2019-01-22T16:48:07.959Z,13.93
2019-01-22T16:50:37.675Z,14.70
2019-01-22T16:53:08.074Z,13.23
2019-01-22T16:55:39.643Z,16.40
2019-01-22T16:58:09.755Z,14.20
2019-01-22T17:00:40.011Z,15.50
2019-01-22T17:03:10.234Z,14.20
2019-01-22T17:05:40.589Z,13.90
2019-01-22T17:08:10.746Z,14.53
2019-01-22T17:10:40.546Z,13.57
2019-01-22T17:13:10.175Z,14.93
2019-01-22T17:15:40.276Z,16.40
2019-01-22T17:18:10.040Z,13.57
2019-01-22T17:20:40.610Z,15.70
2019-01-22T17:23:16.356Z,16.77
2019-01-22T17:25:41.582Z,16.57
2019-01-22T17:28:11.190Z,14.57
2019-01-22T17:30:41.005Z,15.33
2019-01-22T17:33:19.423Z,15.10
2019-01-22T17:35:49.454Z,17.60
2019-01-22T17:38:19.137Z,15.87
2019-01-22T17:40:48.954Z,15.00
2019-01-22T17:43:18.634Z,16.63
2019-01-22T17:45:48.437Z,17.00
2019-01-22T17:48:18.086Z,16.47
2019-01-22T17:50:47.786Z,15.33
2019-01-22T17:53:17.479Z,15.23
2019-01-22T17:55:47.292Z,15.67
2019-01-22T17:58:17.061Z,15.57
2019-01-22T18:00:46.777Z,16.00
2019-01-22T18:03:16.585Z,17.97
2019-01-22T18:05:46.336Z,15.67
2019-01-22T18:08:16.114Z,16.67
2019-01-22T18:10:45.839Z,17.03
2019-01-22T18:13:15.647Z,16.50
2019-01-22T18:15:45.352Z,15.97
2019-01-22T18:18:15.096Z,17.13
2019-01-22T18:20:44.753Z,17.63
2019-01-22T18:23:14.449Z,17.53
2019-01-22T18:25:44.164Z,16.37
2019-01-22T18:28:13.884Z,15.83
2019-01-22T18:30:43.638Z,17.03
2019-01-22T18:33:13.324Z,15.47
2019-01-22T18:35:43.076Z,17.47
2019-01-22T18:38:12.870Z,18.00
2019-01-22T18:40:42.549Z,19.37
2019-01-22T18:43:12.281Z,17.80
2019-01-22T18:45:42.062Z,18.30
2019-01-22T18:48:11.774Z,16.67
2019-01-22T18:50:41.497Z,17.03
2019-01-22T18:53:11.374Z,17.33
2019-01-22T18:55:41.156Z,17.17
2019-01-22T18:58:10.904Z,15.93
2019-01-22T19:00:40.584Z,17.20
2019-01-22T19:03:10.318Z,17.10
2019-01-22T19:05:40.075Z,16.67
2019-01-22T19:08:09.820Z,18.90
2019-01-22T19:10:39.593Z,17.40
2019-01-22T19:13:09.747Z,18.10
2019-01-22T19:15:39.528Z,17.10
2019-01-22T19:18:28.560Z,16.37
2019-01-22T19:20:58.740Z,18.37
2019-01-22T19:23:28.460Z,19.20
2019-01-22T19:25:58.217Z,19.00
2019-01-22T19:28:27.864Z,17.77
2019-01-22T19:30:57.506Z,18.90
2019-01-22T19:33:27.227Z,18.20
2019-01-22T19:35:57.020Z,19.90
2019-01-22T19:38:26.822Z,17.90
2019-01-22T19:40:56.542Z,18.20
2019-01-22T19:43:26.527Z,16.77
2019-01-22T19:45:56.252Z,19.00
2019-01-22T19:48:25.871Z,16.97
2019-01-22T19:50:55.968Z,17.27
2019-01-22T19:53:25.981Z,18.13
2019-01-22T19:55:55.769Z,20.40
2019-01-22T19:58:25.583Z,16.20
2019-01-22T20:00:55.271Z,18.10
2019-01-22T20:03:25.099Z,18.63
2019-01-22T20:05:54.937Z,18.20
2019-01-22T20:08:24.723Z,18.93
2019-01-22T20:10:54.449Z,20.10
2019-01-22T20:13:24.237Z,17.23
2019-01-22T20:15:54.083Z,18.97
2019-01-22T20:18:23.846Z,19.70
2019-01-22T20:20:53.916Z,17.83
2019-01-22T20:23:23.747Z,18.53
2019-01-22T20:25:53.497Z,17.53
2019-01-22T20:28:23.143Z,18.17
2019-01-22T20:30:52.787Z,17.77
2019-01-22T20:33:22.984Z,19.60
2019-01-22T20:35:52.740Z,18.87
2019-01-22T20:38:22.710Z,18.00
2019-01-22T20:40:52.525Z,16.43
2019-01-22T20:43:22.300Z,18.27
2019-01-22T20:45:51.911Z,21.17
2019-01-22T20:48:21.740Z,19.43
2019-01-22T20:50:51.365Z,20.57
2019-01-22T20:53:21.063Z,20.10
2019-01-22T20:55:50.867Z,18.37
2019-01-22T20:58:20.557Z,20.23
2019-01-22T21:00:50.342Z,21.43
2019-01-22T21:03:20.110Z,17.50
2019-01-22T21:05:49.840Z,21.07
2019-01-22T21:08:20.009Z,21.50
2019-01-22T21:10:49.787Z,21.07
2019-01-22T21:13:19.559Z,20.10
2019-01-22T21:15:49.427Z,21.33
2019-01-22T21:18:19.116Z,20.33
2019-01-22T21:20:48.907Z,22.17
2019-01-22T21:23:18.692Z,21.00
2019-01-22T21:25:48.416Z,21.70
2019-01-22T21:28:18.349Z,23.20
2019-01-22T21:30:47.969Z,21.30
2019-01-22T21:33:17.760Z,25.20
2019-01-22T21:35:47.555Z,21.60
2019-01-22T21:38:17.369Z,23.03
2019-01-22T21:40:47.008Z,22.43
2019-01-22T21:43:16.796Z,23.13
2019-01-22T21:45:46.585Z,24.47
2019-01-22T21:48:16.333Z,23.67
2019-01-22T21:50:46.208Z,24.87
2019-01-22T21:53:15.952Z,23.63
2019-01-22T21:55:45.659Z,23.20
2019-01-22T21:58:15.530Z,25.33
2019-01-22T22:00:45.274Z,27.47
2019-01-22T22:03:14.941Z,23.27
2019-01-22T22:05:44.775Z,24.57
2019-01-22T22:08:14.512Z,22.63
2019-01-22T22:10:44.244Z,23.33
2019-01-22T22:13:14.111Z,25.30
2019-01-22T22:15:43.871Z,25.63
2019-01-22T22:18:13.659Z,27.27
2019-01-22T22:20:43.419Z,23.20
2019-01-22T22:23:13.291Z,24.67
2019-01-22T22:25:44.546Z,26.40
2019-01-22T22:28:15.282Z,26.53
2019-01-22T22:30:45.520Z,27.03
2019-01-22T22:33:15.230Z,28.13
2019-01-22T22:35:45.051Z,29.20
2019-01-22T22:38:14.890Z,26.43
2019-01-22T22:40:45.053Z,28.80
2019-01-22T22:43:14.871Z,29.67
2019-01-22T22:45:44.524Z,27.60
2019-01-22T22:48:14.342Z,29.47
2019-01-22T22:50:44.163Z,31.00
2019-01-22T22:53:13.945Z,28.07
2019-01-22T22:55:45.415Z,31.20
2019-01-22T22:58:15.155Z,29.43
2019-01-22T23:00:48.257Z,28.63
2019-01-22T23:03:18.105Z,32.70
2019-01-22T23:05:47.888Z,31.07
2019-01-22T23:08:17.998Z,34.37
2019-01-22T23:10:48.132Z,34.43
2019-01-22T23:13:18.170Z,33.77
2019-01-22T23:15:47.949Z,32.90
2019-01-22T23:18:17.788Z,32.07
2019-01-22T23:20:47.867Z,35.00
2019-01-22T23:23:18.002Z,33.57
2019-01-22T23:25:47.752Z,36.60
2019-01-22T23:28:17.473Z,32.43
2019-01-22T23:30:47.264Z,35.20
2019-01-22T23:33:17.094Z,36.33
2019-01-22T23:35:46.902Z,34.77
2019-01-22T23:38:16.611Z,34.97
2019-01-22T23:40:46.413Z,35.40
2019-01-22T23:43:16.593Z,33.17
2019-01-22T23:45:46.410Z,36.37
2019-01-22T23:48:16.115Z,34.87
2019-01-22T23:50:45.885Z,33.80
2019-01-22T23:53:15.589Z,37.17
2019-01-22T23:55:45.397Z,37.47
2019-01-22T23:58:15.087Z,36.43
